createdAt,value
2023-02-25T15:45:28.061Z,82.40
2023-02-25T15:48:20.979Z,83.10
2023-02-25T15:50:47.667Z,83.00
2023-02-25T15:53:24.625Z,83.40
2023-02-25T15:56:04.595Z,83.10
2023-02-25T15:58:31.415Z,83.20
2023-02-25T16:01:07.825Z,83.10
2023-02-25T16:03:40.661Z,83.50
2023-02-25T16:06:14.515Z,84.10
2023-02-25T16:08:55.926Z,83.70
2023-02-25T16:11:42.154Z,83.50
2023-02-25T16:14:17.398Z,83.30
2023-02-25T16:16:57.473Z,83.40
2023-02-25T16:19:30.880Z,83.60
2023-02-25T16:22:00.359Z,83.50
2023-02-25T16:24:27.764Z,83.50
2023-02-25T16:27:03.315Z,83.10
2023-02-25T16:29:54.471Z,81.00
2023-02-25T16:32:58.745Z,80.80
2023-02-25T16:35:47.934Z,80.00
2023-02-25T16:38:33.554Z,79.60
2023-02-25T16:41:00.804Z,79.30
2023-02-25T16:43:30.256Z,79.40
2023-02-25T16:46:02.822Z,79.40
2023-02-25T16:49:07.700Z,80.40
2023-02-25T16:51:42.390Z,80.20
2023-02-25T16:54:22.485Z,80.30
2023-02-25T16:56:54.484Z,80.50
2023-02-25T16:59:24.039Z,80.60
2023-02-25T17:02:17.178Z,81.00
2023-02-25T17:04:47.401Z,81.20
2023-02-25T17:07:25.313Z,82.10
2023-02-25T17:09:54.935Z,83.10
2023-02-25T17:12:29.245Z,83.20
2023-02-25T17:14:58.316Z,83.20
2023-02-25T17:17:35.191Z,83.60
2023-02-25T17:20:05.983Z,83.60
2023-02-25T17:22:33.671Z,83.40
2023-02-25T17:25:02.123Z,83.40
2023-02-25T17:27:29.206Z,83.10
2023-02-25T17:29:56.265Z,81.80
2023-02-25T17:32:27.364Z,81.20
2023-02-25T17:34:57.914Z,80.00
2023-02-25T17:37:26.106Z,80.40
2023-02-25T17:39:53.714Z,81.70
2023-02-25T17:42:33.983Z,82.80
2023-02-25T17:45:02.034Z,83.50
2023-02-25T17:47:34.166Z,84.90
2023-02-25T17:50:33.127Z,85.90
2023-02-25T17:53:00.054Z,89.60
2023-02-25T17:55:35.064Z,91.80
2023-02-25T17:58:02.114Z,91.50
2023-02-25T18:00:36.240Z,92.00
2023-02-25T18:03:21.216Z,91.10
2023-02-25T18:05:53.167Z,90.80
2023-02-25T18:08:24.271Z,90.80
2023-02-25T18:10:55.174Z,91.10
2023-02-25T18:13:31.184Z,90.80
2023-02-25T18:16:11.356Z,90.30
2023-02-25T18:18:38.250Z,90.30
2023-02-25T18:21:06.502Z,90.20
2023-02-25T18:23:33.514Z,90.30
2023-02-25T18:26:13.235Z,90.60
2023-02-25T18:28:40.123Z,90.70
2023-02-25T18:31:08.093Z,90.80
2023-02-25T18:33:35.718Z,90.80
2023-02-25T18:36:05.663Z,91.20
2023-02-25T18:38:32.779Z,91.70
2023-02-25T18:40:59.634Z,92.50
2023-02-25T18:43:30.659Z,93.10
2023-02-25T18:45:57.852Z,93.70
2023-02-25T18:48:24.841Z,94.10
2023-02-25T18:50:51.880Z,94.80
2023-02-25T18:53:24.094Z,95.70
2023-02-25T18:55:51.932Z,95.70
2023-02-25T18:58:21.879Z,95.70
2023-02-25T19:00:51.251Z,95.70
2023-02-25T19:03:32.442Z,95.70
2023-02-25T19:06:04.748Z,95.70
2023-02-25T19:08:31.728Z,95.70
2023-02-25T19:10:58.984Z,95.40
2023-02-25T19:13:33.572Z,94.70
2023-02-25T19:16:05.101Z,93.70
2023-02-25T19:18:32.233Z,93.40
2023-02-25T19:20:59.840Z,92.70
2023-02-25T19:23:27.285Z,91.20
2023-02-25T19:25:58.734Z,90.50
2023-02-25T19:28:29.416Z,90.20
2023-02-25T19:30:56.583Z,90.10
2023-02-25T19:33:23.486Z,89.90
2023-02-25T19:35:54.348Z,89.60
2023-02-25T19:38:21.229Z,89.40
